createdAt,value
2018-06-18T00:02:16.881Z,31.50
2018-06-18T00:04:50.177Z,31.50
2018-06-18T00:07:23.916Z,31.30
2018-06-18T00:09:56.897Z,31.30
2018-06-18T00:12:29.930Z,31.20
2018-06-18T00:15:03.186Z,31.20
2018-06-18T00:17:36.306Z,31.30
2018-06-18T00:20:09.352Z,31.10
2018-06-18T00:22:42.787Z,31.20
2018-06-18T00:25:15.788Z,31.30
2018-06-18T00:27:48.799Z,31.40
2018-06-18T00:30:21.869Z,31.60
2018-06-18T00:32:54.796Z,31.50
2018-06-18T00:35:27.717Z,31.40
2018-06-18T00:38:00.874Z,31.20
2018-06-18T00:40:33.783Z,31.20
2018-06-18T00:43:06.788Z,31.20
2018-06-18T00:45:39.676Z,31.30
2018-06-18T00:48:12.643Z,31.40
2018-06-18T00:50:45.551Z,31.70
2018-06-18T00:53:20.107Z,32.10
2018-06-18T00:56:02.030Z,32.70
2018-06-18T00:58:35.475Z,33.10
2018-06-18T01:01:08.459Z,33.70
2018-06-18T01:03:41.537Z,34.10
2018-06-18T01:06:14.440Z,34.20
2018-06-18T01:08:48.458Z,34.20
2018-06-18T01:11:21.477Z,34.60
2018-06-18T01:13:54.535Z,34.60
2018-06-18T01:16:27.531Z,35.00
2018-06-18T01:19:00.529Z,34.90
2018-06-18T01:21:33.549Z,34.50
2018-06-18T01:24:20.438Z,34.00
2018-06-18T01:26:53.419Z,33.40
2018-06-18T01:29:26.568Z,33.40
2018-06-18T01:31:59.469Z,33.50
2018-06-18T01:34:32.826Z,33.50
2018-06-18T01:37:05.778Z,33.50
2018-06-18T01:39:38.825Z,32.90
2018-06-18T01:42:11.812Z,32.60
2018-06-18T01:44:44.719Z,33.00
2018-06-18T01:47:17.910Z,33.30
2018-06-18T01:49:52.026Z,33.90
2018-06-18T01:52:26.260Z,34.40
2018-06-18T01:55:00.456Z,34.10
2018-06-18T01:57:36.360Z,34.20
2018-06-18T02:00:14.308Z,34.20
2018-06-18T02:02:47.490Z,34.20
2018-06-18T02:05:23.524Z,34.30
2018-06-18T02:07:58.727Z,34.50
2018-06-18T02:10:31.985Z,34.70
2018-06-18T02:13:05.024Z,34.40
2018-06-18T02:15:38.083Z,34.20
2018-06-18T02:18:11.097Z,34.00
2018-06-18T02:20:44.268Z,33.90
2018-06-18T02:23:17.435Z,33.80
2018-06-18T02:25:51.670Z,33.30
2018-06-18T02:28:28.737Z,32.30
2018-06-18T02:31:05.890Z,31.10
2018-06-18T02:33:43.144Z,30.20
2018-06-18T02:36:20.163Z,29.60
2018-06-18T02:38:54.697Z,29.20
2018-06-18T02:41:27.868Z,28.90
2018-06-18T02:44:00.901Z,28.60
2018-06-18T02:46:33.879Z,28.30
2018-06-18T02:49:07.802Z,28.00
2018-06-18T02:51:40.895Z,27.90
2018-06-18T02:54:13.929Z,27.70
2018-06-18T02:56:56.216Z,27.50
2018-06-18T02:59:29.157Z,27.40
2018-06-18T03:02:02.202Z,27.20
2018-06-18T03:04:35.245Z,27.10
2018-06-18T03:07:08.063Z,27.10
2018-06-18T03:09:41.848Z,27.00
2018-06-18T03:12:15.437Z,26.90
2018-06-18T03:14:48.947Z,26.80
2018-06-18T03:17:21.889Z,26.60
2018-06-18T03:19:58.969Z,26.50
2018-06-18T03:22:36.064Z,26.40
2018-06-18T03:27:19.333Z,26.30
2018-06-18T03:29:53.248Z,26.10
2018-06-18T03:32:28.722Z,25.80
2018-06-18T03:35:01.738Z,25.60
2018-06-18T03:37:34.820Z,25.40
2018-06-18T03:40:07.928Z,25.20
2018-06-18T03:42:41.067Z,25.00
2018-06-18T03:45:18.703Z,24.80
2018-06-18T03:47:51.733Z,24.60
2018-06-18T03:50:24.790Z,24.50
2018-06-18T03:52:57.795Z,24.30
2018-06-18T03:55:43.419Z,24.10
2018-06-18T03:58:16.547Z,23.80
2018-06-18T04:01:06.655Z,23.60
2018-06-18T04:03:44.241Z,23.50
2018-06-18T04:06:21.793Z,23.20
2018-06-18T04:08:59.089Z,23.10
2018-06-18T04:11:36.246Z,23.00
2018-06-18T04:14:09.342Z,22.90
2018-06-18T04:16:42.368Z,22.90
2018-06-18T04:19:15.346Z,22.70
2018-06-18T04:21:48.293Z,22.50
2018-06-18T04:24:21.588Z,22.30
2018-06-18T04:26:54.542Z,22.10
2018-06-18T04:29:27.526Z,21.90
2018-06-18T04:32:00.649Z,21.90
2018-06-18T04:34:41.650Z,21.80
2018-06-18T04:37:14.620Z,21.80
2018-06-18T04:39:47.694Z,21.70
2018-06-18T04:42:24.821Z,21.50
2018-06-18T04:45:01.905Z,21.50
2018-06-18T04:47:39.038Z,21.40
2018-06-18T04:50:16.107Z,21.40
2018-06-18T04:52:49.078Z,21.30
2018-06-18T04:55:22.071Z,21.20
2018-06-18T04:57:58.014Z,21.20
2018-06-18T05:01:33.866Z,21.20
2018-06-18T05:04:06.824Z,21.10
2018-06-18T05:06:39.865Z,21.00
2018-06-18T05:09:21.978Z,21.00
2018-06-18T05:11:54.831Z,21.00
2018-06-18T05:14:27.927Z,20.90
2018-06-18T05:17:00.808Z,21.10
2018-06-18T05:19:33.959Z,21.00
2018-06-18T05:22:06.907Z,20.90
2018-06-18T05:24:39.853Z,20.80
2018-06-18T05:27:15.584Z,20.70
2018-06-18T05:29:48.552Z,20.60
2018-06-18T05:32:21.856Z,20.60
2018-06-18T05:34:54.836Z,20.50
2018-06-18T05:37:36.733Z,20.50
2018-06-18T05:40:09.723Z,20.40
2018-06-18T05:42:42.738Z,20.40
2018-06-18T05:45:16.120Z,20.40
2018-06-18T05:47:48.967Z,20.40
2018-06-18T05:50:21.945Z,20.40
2018-06-18T05:52:55.364Z,20.50
2018-06-18T05:55:28.449Z,20.40
2018-06-18T05:58:01.427Z,20.30
2018-06-18T06:00:34.311Z,20.30
2018-06-18T06:03:07.377Z,20.20
2018-06-18T06:05:40.322Z,20.20
2018-06-18T06:08:13.356Z,20.10
2018-06-18T06:10:46.270Z,20.10
2018-06-18T06:13:19.088Z,20.00
2018-06-18T06:15:52.105Z,19.90
2018-06-18T06:18:25.144Z,19.90
2018-06-18T06:21:04.262Z,19.90
2018-06-18T06:23:37.338Z,19.80
2018-06-18T06:26:10.302Z,19.80
2018-06-18T06:28:43.239Z,19.80
2018-06-18T06:31:16.109Z,19.80
2018-06-18T06:33:49.034Z,19.70
2018-06-18T06:36:22.687Z,19.70
2018-06-18T06:38:55.712Z,19.70
2018-06-18T06:41:29.964Z,19.70
2018-06-18T06:44:02.979Z,19.60
2018-06-18T06:46:36.043Z,19.70
2018-06-18T06:49:08.995Z,19.60
2018-06-18T06:51:41.928Z,19.50
2018-06-18T06:54:15.008Z,19.50
2018-06-18T06:56:47.884Z,19.50
2018-06-18T06:59:20.908Z,19.40
2018-06-18T07:01:53.839Z,19.40
2018-06-18T07:04:26.688Z,19.30
2018-06-18T07:06:59.731Z,19.30
2018-06-18T07:09:32.631Z,19.20
2018-06-18T07:12:05.546Z,19.20
2018-06-18T07:14:38.564Z,19.20
2018-06-18T07:17:11.530Z,19.10
2018-06-18T07:19:44.530Z,19.00
2018-06-18T07:22:17.600Z,19.00
2018-06-18T07:24:50.646Z,19.00
2018-06-18T07:27:23.495Z,18.90
2018-06-18T07:29:56.458Z,18.80
2018-06-18T07:32:29.386Z,18.90
2018-06-18T07:35:02.267Z,18.90
2018-06-18T07:37:35.205Z,18.80
2018-06-18T07:40:08.155Z,18.80
2018-06-18T07:42:41.147Z,18.80
2018-06-18T14:36:02.768Z,17.30
2018-06-18T15:17:46.401Z,21.60
2018-06-18T15:20:20.281Z,22.20
2018-06-18T15:23:04.328Z,22.40
2018-06-18T15:25:45.327Z,23.00
2018-06-18T15:28:18.349Z,23.00
2018-06-18T15:30:51.414Z,22.00
2018-06-18T15:33:24.602Z,21.90
2018-06-18T15:35:58.272Z,21.60
2018-06-18T15:38:31.288Z,21.60
2018-06-18T15:41:04.241Z,21.60
2018-06-18T15:43:38.986Z,21.70
2018-06-18T15:46:11.965Z,21.50
2018-06-18T15:48:45.128Z,21.30
2018-06-18T15:51:19.282Z,21.30
2018-06-18T15:53:53.605Z,21.20
2018-06-18T15:56:26.705Z,21.40
2018-06-18T15:59:00.813Z,21.20
2018-06-18T16:01:33.909Z,21.10
2018-06-18T16:04:07.409Z,21.20
2018-06-18T16:06:40.473Z,21.00
2018-06-18T16:09:13.803Z,20.90
2018-06-18T16:11:46.939Z,21.00
2018-06-18T16:14:20.247Z,20.90
2018-06-18T16:16:53.466Z,21.00
2018-06-18T16:19:28.301Z,21.20
2018-06-18T16:22:02.256Z,21.30
2018-06-18T16:24:35.710Z,21.40
2018-06-18T16:27:08.975Z,21.50
2018-06-18T16:29:42.037Z,21.50
2018-06-18T16:32:15.257Z,21.60
2018-06-18T16:34:48.443Z,21.70
2018-06-18T16:37:22.586Z,21.80
2018-06-18T16:39:57.784Z,22.00
2018-06-18T16:42:33.141Z,22.00
2018-06-18T16:45:08.194Z,21.90
2018-06-18T16:47:45.162Z,21.80
2018-06-18T16:50:19.248Z,21.90
2018-06-18T16:52:53.755Z,22.10
2018-06-18T17:00:43.946Z,22.20
2018-06-18T17:03:18.075Z,22.30
2018-06-18T17:05:53.655Z,22.40
2018-06-18T17:08:26.821Z,22.40
2018-06-18T17:11:00.985Z,22.50
2018-06-18T17:13:36.332Z,22.60
2018-06-18T17:16:09.935Z,22.70
2018-06-18T17:18:43.116Z,22.80
2018-06-18T17:21:20.430Z,22.90
2018-06-18T17:23:55.658Z,22.90
2018-06-18T17:26:30.936Z,22.90
2018-06-18T17:29:04.413Z,22.90
2018-06-18T17:31:41.279Z,23.00
2018-06-18T17:34:15.961Z,23.00
2018-06-18T17:39:31.783Z,23.10
2018-06-18T17:42:05.086Z,23.20
2018-06-18T17:44:38.170Z,23.20
2018-06-18T17:47:11.388Z,23.40
2018-06-18T17:49:44.674Z,23.40
2018-06-18T17:52:17.792Z,23.40
2018-06-18T17:54:55.209Z,23.20
2018-06-18T17:57:28.404Z,23.50
2018-06-18T18:02:39.109Z,23.40
2018-06-18T18:05:13.211Z,23.30
2018-06-18T18:07:46.453Z,23.50
2018-06-18T18:10:19.585Z,23.50
2018-06-18T18:12:52.832Z,23.70
2018-06-18T18:15:25.953Z,23.90
2018-06-18T18:17:58.910Z,24.00
2018-06-18T18:20:33.295Z,24.20
2018-06-18T18:23:06.895Z,24.20
2018-06-18T18:25:41.228Z,24.30
2018-06-18T18:28:15.281Z,24.30
2018-06-18T18:30:49.787Z,24.50
2018-06-18T18:33:23.142Z,24.70
2018-06-18T18:35:57.312Z,24.80
2018-06-18T18:38:32.418Z,24.80
2018-06-18T18:41:08.309Z,24.90
2018-06-18T18:43:43.686Z,24.90
2018-06-18T18:46:17.824Z,24.70
2018-06-18T18:48:50.867Z,24.50
2018-06-18T18:51:24.597Z,24.60
2018-06-18T18:53:59.498Z,24.80
2018-06-18T18:56:43.035Z,24.90
2018-06-18T18:59:24.255Z,24.90
2018-06-18T19:01:59.484Z,25.00
2018-06-18T19:04:43.644Z,25.10
2018-06-18T19:07:16.953Z,25.10
2018-06-18T19:10:03.156Z,25.10
2018-06-18T19:12:36.447Z,25.20
2018-06-18T19:15:10.667Z,25.30
2018-06-18T19:17:43.896Z,25.50
2018-06-18T19:20:20.691Z,25.50
2018-06-18T19:22:53.975Z,25.60
2018-06-18T19:25:27.351Z,25.70
2018-06-18T19:28:00.572Z,25.70
2018-06-18T19:30:34.774Z,25.90
2018-06-18T19:33:25.305Z,25.80
2018-06-18T19:36:01.127Z,26.10
2018-06-18T19:38:35.157Z,26.10
2018-06-18T19:41:08.196Z,26.20
2018-06-18T19:43:41.519Z,26.20
2018-06-18T19:46:22.022Z,26.10
2018-06-18T19:49:03.656Z,26.20
2018-06-18T19:51:36.782Z,26.40
2018-06-18T19:54:14.320Z,26.30
2018-06-18T19:56:47.441Z,26.60
2018-06-18T19:59:20.530Z,26.60
2018-06-18T20:01:53.508Z,26.70
2018-06-18T20:04:26.567Z,26.90
2018-06-18T20:06:59.560Z,26.70
2018-06-18T20:09:32.654Z,26.80
2018-06-18T20:12:05.879Z,26.80
2018-06-18T20:14:39.895Z,26.80
2018-06-18T20:17:13.456Z,26.90
2018-06-18T20:19:46.594Z,27.00
2018-06-18T20:22:21.533Z,27.10
2018-06-18T20:24:55.026Z,27.20
2018-06-18T20:27:28.215Z,27.10
2018-06-18T20:30:01.420Z,26.90
2018-06-18T20:32:35.675Z,26.80
2018-06-18T20:35:13.066Z,27.10
2018-06-18T20:37:46.504Z,27.00
2018-06-18T20:40:19.870Z,27.10
2018-06-18T20:42:53.112Z,27.10
2018-06-18T20:45:26.429Z,27.20
2018-06-18T20:47:59.891Z,27.20
2018-06-18T20:50:33.277Z,27.30
2018-06-18T20:53:06.549Z,27.40
2018-06-18T20:55:39.562Z,27.60
2018-06-18T20:58:13.552Z,27.70
2018-06-18T21:00:46.819Z,27.80
2018-06-18T21:03:20.454Z,27.90
2018-06-18T21:05:53.546Z,27.90
2018-06-18T21:08:26.676Z,28.00
2018-06-18T21:11:00.004Z,28.10
2018-06-18T21:13:33.015Z,28.30
2018-06-18T21:16:06.138Z,28.20
2018-06-18T21:18:40.486Z,28.20
2018-06-18T21:21:17.608Z,28.20
2018-06-18T21:23:50.728Z,28.40
2018-06-18T21:26:23.670Z,28.50
2018-06-18T21:28:56.895Z,28.20
2018-06-18T21:31:29.952Z,28.30
2018-06-18T21:34:02.965Z,28.50
2018-06-18T21:36:35.889Z,28.70
2018-06-18T21:39:12.100Z,29.00
2018-06-18T21:41:45.178Z,29.20
2018-06-18T21:44:22.930Z,29.50
2018-06-18T21:46:55.951Z,29.50
2018-06-18T21:49:28.942Z,29.40
2018-06-18T21:52:02.064Z,29.40
2018-06-18T21:54:35.082Z,29.70
2018-06-18T21:57:08.220Z,29.60
2018-06-18T21:59:41.243Z,29.60
2018-06-18T22:02:14.367Z,29.40
2018-06-18T22:04:47.408Z,29.20
2018-06-18T22:07:20.465Z,29.30
2018-06-18T22:09:53.474Z,29.60
2018-06-18T22:12:27.370Z,29.40
2018-06-18T22:15:00.360Z,29.50
2018-06-18T22:17:33.433Z,29.70
2018-06-18T22:20:06.497Z,29.80
2018-06-18T22:22:39.421Z,29.90
2018-06-18T22:25:12.534Z,29.90
2018-06-18T22:27:45.653Z,30.10
2018-06-18T22:30:19.392Z,29.70
2018-06-18T22:32:52.501Z,29.20
2018-06-18T22:35:25.473Z,29.30
2018-06-18T22:37:58.561Z,29.00
2018-06-18T22:40:31.645Z,29.00
2018-06-18T22:43:04.780Z,29.00
2018-06-18T22:45:37.973Z,29.20
2018-06-18T22:48:10.936Z,29.20
2018-06-18T22:50:43.827Z,29.30
2018-06-18T22:53:17.581Z,29.50
2018-06-18T22:55:50.753Z,29.90
2018-06-18T22:58:23.719Z,30.20
2018-06-18T23:00:58.159Z,30.20
2018-06-18T23:03:31.251Z,30.20
2018-06-18T23:06:04.267Z,30.30
2018-06-18T23:08:37.218Z,30.40
2018-06-18T23:11:10.637Z,30.80
2018-06-18T23:13:45.585Z,31.10
2018-06-18T23:16:19.458Z,31.30
2018-06-18T23:18:52.604Z,31.40
2018-06-18T23:21:25.539Z,31.20
2018-06-18T23:23:58.548Z,31.20
2018-06-18T23:26:31.550Z,31.20
2018-06-18T23:29:07.269Z,31.30
2018-06-18T23:31:40.184Z,31.00
2018-06-18T23:34:14.453Z,31.00
2018-06-18T23:36:47.453Z,31.40
2018-06-18T23:39:20.593Z,31.40
2018-06-18T23:41:56.589Z,31.60
2018-06-18T23:44:30.902Z,31.60
2018-06-18T23:49:46.241Z,30.10
2018-06-18T23:52:19.318Z,30.20
2018-06-18T23:54:52.331Z,30.20
2018-06-18T23:57:25.420Z,30.40
2018-06-18T23:59:58.705Z,30.10
